Time;durP1;ratioP1;P1;durP2;ratioP2;P2;SDS_P1;SDS_P2;PMS_P1;PMS_P2;Temp;Humidity;BMP_temperature;BMP_pressure;BME280_temperature;BME280_humidity;BME280_pressure;Samples;Min_cycle;Max_cycle;Signal;HPM_P1;HPM_P2
2023/11/15 00:00:20;;;;;;;0.10;0.00;;;;;;;;;;5086680;28;20013;-80
2023/11/15 00:02:46;;;;;;;0.00;0.00;;;;;;;;;;5091482;28;20008;-80
2023/11/15 00:05:12;;;;;;;0.00;0.00;;;;;;;;;;5089231;28;20069;-80
2023/11/15 00:07:38;;;;;;;0.00;0.00;;;;;;;;;;5097507;28;20025;-79
2023/11/15 00:10:05;;;;;;;0.00;0.00;;;;;;;;;;5090177;28;20009;-80
2023/11/15 00:12:34;;;;;;;0.00;0.00;;;;;;;;;;5085856;28;20019;-80
2023/11/15 00:15:00;;;;;;;0.10;0.00;;;;;;;;;;5091831;28;20034;-81
2023/11/15 00:17:30;;;;;;;0.00;0.00;;;;;;;;;;5081893;28;20028;-81
2023/11/15 00:19:56;;;;;;;0.00;0.00;;;;;;;;;;5086936;28;20008;-81
2023/11/15 00:22:25;;;;;;;0.00;0.00;;;;;;;;;;5086516;28;20028;-81
2023/11/15 00:24:51;;;;;;;0.00;0.00;;;;;;;;;;5069175;28;20029;-82
2023/11/15 00:27:17;;;;;;;0.00;0.00;;;;;;;;;;5081175;28;20036;-81
2023/11/15 00:29:43;;;;;;;0.00;0.00;;;;;;;;;;5089660;28;20099;-81
2023/11/15 00:32:10;;;;;;;0.00;0.00;;;;;;;;;;5088149;28;20069;-80
2023/11/15 00:34:36;;;;;;;0.00;0.00;;;;;;;;;;5088177;28;20008;-80
2023/11/15 00:37:06;;;;;;;0.00;0.00;;;;;;;;;;5094291;28;20016;-81
2023/11/15 00:39:32;;;;;;;0.00;0.00;;;;;;;;;;5093509;28;20059;-81
2023/11/15 00:42:00;;;;;;;0.00;0.00;;;;;;;;;;5092355;28;20051;-81
2023/11/15 00:44:26;;;;;;;0.00;0.00;;;;;;;;;;5079574;28;20013;-81
2023/11/15 00:46:52;;;;;;;0.00;0.00;;;;;;;;;;5088117;28;20028;-81
2023/11/15 00:49:18;;;;;;;0.00;0.00;;;;;;;;;;5095788;28;20036;-81
2023/11/15 00:51:44;;;;;;;0.00;0.00;;;;;;;;;;5083914;28;20028;-81
2023/11/15 00:54:11;;;;;;;0.00;0.00;;;;;;;;;;5086566;28;20020;-82
2023/11/15 00:56:37;;;;;;;0.00;0.00;;;;;;;;;;5069583;28;20073;-81
2023/11/15 00:59:05;;;;;;;0.00;0.00;;;;;;;;;;5076077;28;20016;-82
2023/11/15 01:01:31;;;;;;;0.00;0.00;;;;;;;;;;5085389;28;20080;-82
2023/11/15 01:03:58;;;;;;;0.00;0.00;;;;;;;;;;5078149;28;20032;-81
2023/11/15 01:06:25;;;;;;;0.00;0.00;;;;;;;;;;5089943;28;20033;-81
2023/11/15 01:08:57;;;;;;;0.00;0.00;;;;;;;;;;5088475;28;20009;-79
2023/11/15 01:11:26;;;;;;;;;;;;;;;;;;5094140;28;20036;-81
2023/11/15 01:13:53;;;;;;;0.00;0.00;;;;;;;;;;5084935;28;19904;-81
2023/11/15 01:16:23;;;;;;;0.00;0.00;;;;;;;;;;5082348;28;20016;-81
2023/11/15 01:18:49;;;;;;;0.00;0.00;;;;;;;;;;5084724;28;20333;-81
2023/11/15 01:21:18;;;;;;;0.00;0.00;;;;;;;;;;5065368;28;20039;-81
2023/11/15 01:23:44;;;;;;;0.00;0.00;;;;;;;;;;5078554;28;20021;-82
2023/11/15 01:26:11;;;;;;;0.00;0.00;;;;;;;;;;5079107;28;20033;-82
2023/11/15 01:28:37;;;;;;;0.00;0.00;;;;;;;;;;5078221;28;20020;-80
2023/11/15 01:31:03;;;;;;;0.00;0.00;;;;;;;;;;5076862;28;20014;-82
2023/11/15 01:33:30;;;;;;;0.10;0.10;;;;;;;;;;5074620;28;20108;-81
2023/11/15 01:35:56;;;;;;;0.10;0.10;;;;;;;;;;5088083;28;20009;-80
2023/11/15 01:38:22;;;;;;;0.15;0.15;;;;;;;;;;5085059;28;20021;-81
2023/11/15 01:40:48;;;;;;;0.03;0.03;;;;;;;;;;5075456;28;20372;-81
2023/11/15 01:43:16;;;;;;;0.10;0.10;;;;;;;;;;5078423;28;20043;-81
2023/11/15 01:45:43;;;;;;;0.00;0.00;;;;;;;;;;5069348;28;20051;-80
2023/11/15 01:48:09;;;;;;;0.10;0.10;;;;;;;;;;5082767;28;20037;-81
2023/11/15 01:50:35;;;;;;;0.10;0.05;;;;;;;;;;5080266;28;20025;-82
2023/11/15 01:53:02;;;;;;;0.20;0.10;;;;;;;;;;5079888;28;20049;-80
2023/11/15 01:55:29;;;;;;;0.10;0.10;;;;;;;;;;5093010;28;20040;-81
2023/11/15 01:57:56;;;;;;;0.15;0.10;;;;;;;;;;5085980;28;20036;-82
2023/11/15 02:00:23;;;;;;;0.00;0.00;;;;;;;;;;5089217;28;20028;-81
2023/11/15 02:02:49;;;;;;;0.20;0.10;;;;;;;;;;5079794;28;20051;-81
2023/11/15 02:05:15;;;;;;;0.00;0.00;;;;;;;;;;5085273;28;20021;-81
2023/11/15 02:07:43;;;;;;;0.10;0.10;;;;;;;;;;5082889;28;20028;-82
2023/11/15 02:10:09;;;;;;;0.10;0.10;;;;;;;;;;5075091;28;20040;-81
2023/11/15 02:12:35;;;;;;;0.10;0.10;;;;;;;;;;5073935;28;20021;-82
2023/11/15 02:15:01;;;;;;;0.10;0.10;;;;;;;;;;5080014;28;20021;-82
2023/11/15 02:17:27;;;;;;;0.03;0.03;;;;;;;;;;5086021;28;20021;-81
2023/11/15 02:19:53;;;;;;;0.10;0.10;;;;;;;;;;5090638;28;20020;-82
2023/11/15 02:22:20;;;;;;;0.32;0.10;;;;;;;;;;5089911;28;20013;-81
2023/11/15 02:24:46;;;;;;;0.08;0.08;;;;;;;;;;5091892;28;20032;-81
2023/11/15 02:27:12;;;;;;;0.10;0.10;;;;;;;;;;5099046;28;20032;-81
2023/11/15 02:29:41;;;;;;;0.20;0.20;;;;;;;;;;5086887;28;20025;-81
2023/11/15 02:32:09;;;;;;;0.35;0.20;;;;;;;;;;5094578;28;20008;-81
2023/11/15 02:34:35;;;;;;;0.17;0.13;;;;;;;;;;5089236;28;20176;-80
2023/11/15 02:37:04;;;;;;;0.10;0.10;;;;;;;;;;5077268;28;20017;-82
2023/11/15 02:39:30;;;;;;;0.10;0.10;;;;;;;;;;5078816;28;20232;-81
2023/11/15 02:41:57;;;;;;;0.85;0.20;;;;;;;;;;5071062;28;20025;-81
2023/11/15 02:44:23;;;;;;;0.50;0.45;;;;;;;;;;5081991;28;20027;-81
2023/11/15 02:46:49;;;;;;;0.85;0.20;;;;;;;;;;5072824;28;20505;-83
2023/11/15 02:49:15;;;;;;;0.63;0.35;;;;;;;;;;5073702;28;20403;-81
2023/11/15 02:51:41;;;;;;;1.25;0.60;;;;;;;;;;5064850;28;20065;-82
2023/11/15 02:54:08;;;;;;;0.40;0.40;;;;;;;;;;5082544;28;20072;-81
2023/11/15 02:56:34;;;;;;;0.43;0.43;;;;;;;;;;5074997;28;20376;-81
2023/11/15 02:59:00;;;;;;;0.47;0.20;;;;;;;;;;5077737;28;20044;-81
2023/11/15 03:01:26;;;;;;;0.85;0.38;;;;;;;;;;5078754;28;20047;-81
2023/11/15 03:03:52;;;;;;;0.22;0.22;;;;;;;;;;5068086;28;20382;-82
2023/11/15 03:06:18;;;;;;;0.20;0.10;;;;;;;;;;5075603;28;20060;-81
2023/11/15 03:08:44;;;;;;;0.28;0.20;;;;;;;;;;5073054;28;20039;-82
2023/11/15 03:11:10;;;;;;;0.15;0.15;;;;;;;;;;5075311;28;20081;-82
2023/11/15 03:13:36;;;;;;;0.20;0.20;;;;;;;;;;5078970;28;20021;-82
2023/11/15 03:16:03;;;;;;;0.20;0.20;;;;;;;;;;5075784;28;20123;-82
2023/11/15 03:18:29;;;;;;;0.73;0.10;;;;;;;;;;5082300;28;20103;-81
2023/11/15 03:20:55;;;;;;;0.20;0.20;;;;;;;;;;5072863;28;20054;-81
2023/11/15 03:23:21;;;;;;;0.63;0.40;;;;;;;;;;5076179;28;20021;-81
2023/11/15 03:25:50;;;;;;;0.30;0.30;;;;;;;;;;5075403;28;20025;-81
2023/11/15 03:28:16;;;;;;;0.90;0.30;;;;;;;;;;5080633;28;20013;-82
2023/11/15 03:30:42;;;;;;;0.60;0.20;;;;;;;;;;5070679;28;20021;-81
2023/11/15 03:33:08;;;;;;;0.40;0.32;;;;;;;;;;5077170;28;20048;-81
2023/11/15 03:35:35;;;;;;;0.20;0.20;;;;;;;;;;5081282;28;20021;-81
2023/11/15 03:38:01;;;;;;;0.52;0.20;;;;;;;;;;5076946;28;20488;-82
2023/11/15 03:40:27;;;;;;;0.20;0.20;;;;;;;;;;5072786;28;20048;-80
2023/11/15 03:42:53;;;;;;;0.28;0.20;;;;;;;;;;5081193;28;20024;-82
2023/11/15 03:45:20;;;;;;;0.65;0.20;;;;;;;;;;5072547;28;20027;-82
2023/11/15 03:47:47;;;;;;;0.75;0.30;;;;;;;;;;5071237;28;20025;-81
2023/11/15 03:50:13;;;;;;;0.17;0.17;;;;;;;;;;5077659;28;20098;-82
2023/11/15 03:52:39;;;;;;;0.77;0.20;;;;;;;;;;5077908;28;20013;-81
2023/11/15 03:55:05;;;;;;;0.77;0.30;;;;;;;;;;5075089;28;20017;-81
2023/11/15 03:57:33;;;;;;;1.35;0.28;;;;;;;;;;5072115;28;20028;-81
2023/11/15 04:00:00;;;;;;;0.45;0.30;;;;;;;;;;5067035;28;20442;-82
2023/11/15 04:02:28;;;;;;;1.13;0.47;;;;;;;;;;5076757;28;20024;-82
2023/11/15 04:04:54;;;;;;;0.30;0.20;;;;;;;;;;5074219;28;20031;-80
2023/11/15 04:07:21;;;;;;;0.43;0.22;;;;;;;;;;5072211;28;20424;-81
2023/11/15 04:09:49;;;;;;;0.25;0.10;;;;;;;;;;5075017;28;20104;-81
2023/11/15 04:12:16;;;;;;;0.52;0.30;;;;;;;;;;5082098;22;20040;-77
2023/11/15 04:14:42;;;;;;;0.52;0.20;;;;;;;;;;5060746;28;20032;-77
2023/11/15 04:17:08;;;;;;;1.33;0.30;;;;;;;;;;5096916;28;20016;-78
2023/11/15 04:19:34;;;;;;;0.95;0.30;;;;;;;;;;5078138;28;20464;-78
2023/11/15 04:22:00;;;;;;;1.40;0.30;;;;;;;;;;5071504;28;20029;-79
2023/11/15 04:24:26;;;;;;;1.55;0.90;;;;;;;;;;5075861;28;20025;-78
2023/11/15 04:26:52;;;;;;;4.10;0.40;;;;;;;;;;5059382;28;20025;-79
2023/11/15 04:29:18;;;;;;;0.63;0.20;;;;;;;;;;5067959;28;20028;-80
2023/11/15 04:31:44;;;;;;;1.63;0.22;;;;;;;;;;5056310;28;20025;-78
2023/11/15 04:34:11;;;;;;;0.75;0.20;;;;;;;;;;5048005;28;20021;-77
2023/11/15 04:36:37;;;;;;;5.47;0.22;;;;;;;;;;5050104;28;20021;-77
2023/11/15 04:39:07;;;;;;;1.08;0.20;;;;;;;;;;5067773;28;20498;-77
2023/11/15 04:41:34;;;;;;;0.35;0.20;;;;;;;;;;5056386;28;20120;-77
2023/11/15 04:44:01;;;;;;;0.63;0.17;;;;;;;;;;5060802;28;20246;-77
2023/11/15 04:46:27;;;;;;;1.25;0.30;;;;;;;;;;5063501;28;20055;-77
2023/11/15 04:48:53;;;;;;;0.73;0.30;;;;;;;;;;5073312;28;20028;-78
2023/11/15 04:51:20;;;;;;;0.70;0.13;;;;;;;;;;5054390;28;20013;-77
2023/11/15 04:53:46;;;;;;;2.15;0.40;;;;;;;;;;5068958;28;20021;-77
2023/11/15 04:56:12;;;;;;;1.05;0.25;;;;;;;;;;5063497;28;20096;-79
2023/11/15 04:58:39;;;;;;;0.17;0.17;;;;;;;;;;5048401;28;20024;-76
2023/11/15 05:01:06;;;;;;;0.50;0.10;;;;;;;;;;5059033;28;20017;-77
2023/11/15 05:03:32;;;;;;;0.55;0.08;;;;;;;;;;5056231;28;20108;-78
2023/11/15 05:05:58;;;;;;;0.30;0.20;;;;;;;;;;5053445;28;20025;-77
2023/11/15 05:08:24;;;;;;;0.57;0.28;;;;;;;;;;5051987;28;20403;-77
2023/11/15 05:10:50;;;;;;;1.25;0.38;;;;;;;;;;5061106;28;20415;-78
2023/11/15 05:13:17;;;;;;;0.65;0.20;;;;;;;;;;5031308;28;20028;-77
2023/11/15 05:15:44;;;;;;;0.57;0.25;;;;;;;;;;5047659;28;20143;-77
2023/11/15 05:18:10;;;;;;;1.17;0.38;;;;;;;;;;5059717;28;20043;-77
2023/11/15 05:20:36;;;;;;;1.13;0.40;;;;;;;;;;5056506;28;20030;-77
2023/11/15 05:23:02;;;;;;;0.32;0.15;;;;;;;;;;5076447;28;20044;-76
2023/11/15 05:25:29;;;;;;;0.43;0.20;;;;;;;;;;5068457;28;20021;-77
2023/11/15 05:27:55;;;;;;;0.50;0.40;;;;;;;;;;5051870;28;20030;-77
2023/11/15 05:30:21;;;;;;;0.80;0.25;;;;;;;;;;5064362;28;20048;-76
2023/11/15 05:32:48;;;;;;;3.22;0.50;;;;;;;;;;5057199;28;20077;-76
2023/11/15 05:35:15;;;;;;;1.90;0.40;;;;;;;;;;5046072;28;20017;-78
2023/11/15 05:37:41;;;;;;;0.57;0.30;;;;;;;;;;5049730;28;20033;-75
2023/11/15 05:40:08;;;;;;;0.50;0.30;;;;;;;;;;5039923;28;20026;-77
2023/11/15 05:42:34;;;;;;;0.70;0.40;;;;;;;;;;5069735;28;20395;-77
2023/11/15 05:45:00;;;;;;;0.98;0.30;;;;;;;;;;5072205;28;20105;-77
2023/11/15 05:47:27;;;;;;;1.10;0.40;;;;;;;;;;5059081;28;20033;-77
2023/11/15 05:49:54;;;;;;;0.20;0.20;;;;;;;;;;5074423;28;20553;-76
2023/11/15 05:52:20;;;;;;;0.73;0.52;;;;;;;;;;5047359;28;20017;-76
2023/11/15 05:54:47;;;;;;;0.43;0.20;;;;;;;;;;5061796;28;20021;-76
2023/11/15 05:57:13;;;;;;;0.20;0.20;;;;;;;;;;5072381;28;20394;-76
2023/11/15 05:59:40;;;;;;;0.90;0.32;;;;;;;;;;5065327;28;20029;-76
2023/11/15 06:02:06;;;;;;;0.30;0.30;;;;;;;;;;5067009;28;20109;-76
2023/11/15 06:04:35;;;;;;;0.68;0.20;;;;;;;;;;5078040;28;20028;-76
2023/11/15 06:07:01;;;;;;;3.22;0.85;;;;;;;;;;5066484;28;20032;-76
2023/11/15 06:09:27;;;;;;;1.30;0.30;;;;;;;;;;5071028;28;20024;-77
2023/11/15 06:11:54;;;;;;;2.00;0.40;;;;;;;;;;5062068;28;20029;-76
2023/11/15 06:14:20;;;;;;;0.40;0.30;;;;;;;;;;5064030;28;20017;-76
2023/11/15 06:16:46;;;;;;;0.43;0.30;;;;;;;;;;5050031;28;20422;-76
2023/11/15 06:19:12;;;;;;;1.88;0.43;;;;;;;;;;5076113;28;20020;-77
2023/11/15 06:21:43;;;;;;;0.47;0.30;;;;;;;;;;5052433;28;20033;-76
2023/11/15 06:24:09;;;;;;;1.55;0.30;;;;;;;;;;5085771;28;20069;-76
2023/11/15 06:26:36;;;;;;;0.20;0.20;;;;;;;;;;5076771;28;20029;-77
2023/11/15 06:29:03;;;;;;;1.42;0.60;;;;;;;;;;5078364;28;20017;-77
2023/11/15 06:31:29;;;;;;;2.70;0.50;;;;;;;;;;5095957;28;20039;-77
2023/11/15 06:33:56;;;;;;;2.55;1.10;;;;;;;;;;5093891;28;20017;-77
2023/11/15 06:36:22;;;;;;;1.10;0.50;;;;;;;;;;5059405;28;20029;-76
2023/11/15 06:38:48;;;;;;;1.27;0.68;;;;;;;;;;5072337;28;20024;-77
2023/11/15 06:41:15;;;;;;;0.57;0.30;;;;;;;;;;5066357;28;20021;-77
2023/11/15 06:43:41;;;;;;;1.10;0.40;;;;;;;;;;5048326;28;20025;-77
2023/11/15 06:46:07;;;;;;;0.88;0.30;;;;;;;;;;5060779;28;20044;-77
2023/11/15 06:48:33;;;;;;;0.55;0.55;;;;;;;;;;5054784;28;20025;-75
2023/11/15 06:51:00;;;;;;;2.60;0.50;;;;;;;;;;5056419;28;20025;-76
2023/11/15 06:53:27;;;;;;;1.10;0.55;;;;;;;;;;5040383;28;20033;-79
2023/11/15 06:56:02;;;;;;;1.30;0.55;;;;;;;;;;5058697;28;20071;-77
2023/11/15 06:58:28;;;;;;;1.08;0.60;;;;;;;;;;5060172;28;20033;-78
2023/11/15 07:00:55;;;;;;;0.85;0.35;;;;;;;;;;5039797;28;20017;-78
2023/11/15 07:03:22;;;;;;;1.35;0.43;;;;;;;;;;5066799;28;20082;-77
2023/11/15 07:05:49;;;;;;;1.45;0.57;;;;;;;;;;5057972;28;20472;-77
2023/11/15 07:08:17;;;;;;;1.58;0.60;;;;;;;;;;5057874;28;20047;-78
2023/11/15 07:10:43;;;;;;;1.45;0.60;;;;;;;;;;5066382;28;20017;-77
2023/11/15 07:13:12;;;;;;;1.10;0.45;;;;;;;;;;5058708;28;20021;-77
2023/11/15 07:15:44;;;;;;;0.90;0.60;;;;;;;;;;5067476;28;20040;-77
2023/11/15 07:18:11;;;;;;;1.13;0.50;;;;;;;;;;5043044;28;20040;-77
2023/11/15 07:20:41;;;;;;;1.63;0.75;;;;;;;;;;5043087;28;20033;-78
2023/11/15 07:23:07;;;;;;;2.33;0.47;;;;;;;;;;5062789;28;20044;-77
2023/11/15 07:25:33;;;;;;;1.25;0.32;;;;;;;;;;5071703;28;20415;-77
2023/11/15 07:28:00;;;;;;;0.73;0.50;;;;;;;;;;5078125;28;20028;-75
2023/11/15 07:30:27;;;;;;;1.02;0.50;;;;;;;;;;5057461;28;20060;-76
2023/11/15 07:32:54;;;;;;;0.55;0.40;;;;;;;;;;5069727;28;20024;-78
2023/11/15 07:35:21;;;;;;;2.00;0.40;;;;;;;;;;5052822;28;20032;-75
2023/11/15 07:37:47;;;;;;;0.88;0.35;;;;;;;;;;5057590;28;20017;-79
2023/11/15 07:40:13;;;;;;;1.27;0.47;;;;;;;;;;5070454;28;20032;-78
2023/11/15 07:42:40;;;;;;;0.98;0.60;;;;;;;;;;5066285;28;20506;-79
2023/11/15 07:45:08;;;;;;;0.95;0.50;;;;;;;;;;5054915;28;20091;-77
2023/11/15 07:47:34;;;;;;;1.85;0.82;;;;;;;;;;5058766;28;20017;-79
2023/11/15 07:50:04;;;;;;;3.58;0.63;;;;;;;;;;5055648;28;20457;-78
2023/11/15 07:52:31;;;;;;;1.52;0.70;;;;;;;;;;5059847;28;20030;-76
2023/11/15 07:54:58;;;;;;;1.52;0.47;;;;;;;;;;5072186;28;20021;-77
2023/11/15 07:57:24;;;;;;;1.63;0.70;;;;;;;;;;5061323;28;20025;-77
2023/11/15 07:59:51;;;;;;;0.40;0.30;;;;;;;;;;5073134;28;20024;-75
2023/11/15 08:02:18;;;;;;;1.42;0.32;;;;;;;;;;5073594;28;20028;-77
2023/11/15 08:04:44;;;;;;;1.10;0.25;;;;;;;;;;5072074;28;20029;-78
2023/11/15 08:07:11;;;;;;;0.80;0.30;;;;;;;;;;5047013;28;20036;-77
2023/11/15 08:09:37;;;;;;;1.27;0.38;;;;;;;;;;5050295;28;20081;-77
2023/11/15 08:12:05;;;;;;;1.30;0.50;;;;;;;;;;5047882;28;20032;-77
2023/11/15 08:14:32;;;;;;;2.85;0.50;;;;;;;;;;5069251;28;20020;-78
2023/11/15 08:16:58;;;;;;;2.00;0.60;;;;;;;;;;5059031;28;20047;-77
2023/11/15 08:19:24;;;;;;;1.13;0.50;;;;;;;;;;5058287;28;20491;-75
2023/11/15 08:21:51;;;;;;;0.95;0.50;;;;;;;;;;5065123;28;20016;-78
2023/11/15 08:24:21;;;;;;;0.88;0.40;;;;;;;;;;5051231;28;20028;-77
2023/11/15 08:26:54;;;;;;;2.10;0.65;;;;;;;;;;5044126;28;20537;-77
2023/11/15 08:29:21;;;;;;;1.15;0.60;;;;;;;;;;5057532;28;20017;-78
2023/11/15 08:31:48;;;;;;;2.42;0.63;;;;;;;;;;5077945;28;20027;-78
2023/11/15 08:34:15;;;;;;;3.08;0.70;;;;;;;;;;5069190;28;20020;-77
2023/11/15 08:36:43;;;;;;;5.20;1.15;;;;;;;;;;5075192;28;20341;-78
2023/11/15 08:39:12;;;;;;;3.40;0.60;;;;;;;;;;5057581;28;20067;-78
2023/11/15 08:41:40;;;;;;;2.20;0.65;;;;;;;;;;5059498;28;20047;-78
2023/11/15 08:44:08;;;;;;;1.98;0.75;;;;;;;;;;5057531;28;20049;-75
2023/11/15 08:46:34;;;;;;;2.08;0.65;;;;;;;;;;5066489;28;20559;-77
2023/11/15 08:49:01;;;;;;;2.08;0.40;;;;;;;;;;5067207;28;20017;-78
2023/11/15 08:51:29;;;;;;;5.10;1.60;;;;;;;;;;5055722;28;20100;-77
2023/11/15 08:53:57;;;;;;;3.90;0.68;;;;;;;;;;5072746;28;20028;-76
2023/11/15 08:56:23;;;;;;;2.35;0.50;;;;;;;;;;5062765;28;20040;-79
2023/11/15 08:58:49;;;;;;;0.68;0.35;;;;;;;;;;5066356;28;20055;-77
2023/11/15 09:01:16;;;;;;;0.68;0.52;;;;;;;;;;5070989;28;20013;-76
2023/11/15 09:03:45;;;;;;;2.40;0.68;;;;;;;;;;5073711;28;20063;-76
2023/11/15 09:06:12;;;;;;;2.33;0.70;;;;;;;;;;5076434;28;20036;-75
2023/11/15 09:08:38;;;;;;;2.58;0.80;;;;;;;;;;5067886;28;20092;-75
2023/11/15 09:11:05;;;;;;;0.77;0.40;;;;;;;;;;5071529;28;20033;-76
2023/11/15 09:13:33;;;;;;;2.17;0.57;;;;;;;;;;5069517;28;20021;-77
2023/11/15 09:15:59;;;;;;;2.35;0.82;;;;;;;;;;5068052;28;20017;-79
2023/11/15 09:18:27;;;;;;;2.25;0.80;;;;;;;;;;5068418;28;20134;-77
2023/11/15 09:20:53;;;;;;;1.45;0.40;;;;;;;;;;5062365;28;20013;-76
2023/11/15 09:23:20;;;;;;;0.32;0.32;;;;;;;;;;5082577;28;20103;-77
2023/11/15 09:25:49;;;;;;;0.47;0.43;;;;;;;;;;5059340;28;20033;-75
2023/11/15 09:28:18;;;;;;;4.80;0.80;;;;;;;;;;5067417;28;20020;-76
2023/11/15 09:30:44;;;;;;;4.93;0.82;;;;;;;;;;5071647;28;20016;-77
2023/11/15 09:33:13;;;;;;;2.58;0.82;;;;;;;;;;5075619;28;20462;-76
2023/11/15 09:35:40;;;;;;;1.95;0.77;;;;;;;;;;5077285;28;20025;-75
2023/11/15 09:38:10;;;;;;;2.63;0.80;;;;;;;;;;5076288;28;20074;-77
2023/11/15 09:40:37;;;;;;;0.40;0.35;;;;;;;;;;5080159;28;20037;-77
2023/11/15 09:43:04;;;;;;;2.47;0.70;;;;;;;;;;5075044;28;20029;-77
2023/11/15 09:45:32;;;;;;;2.72;0.55;;;;;;;;;;5080834;28;20116;-78
2023/11/15 09:48:00;;;;;;;3.70;0.70;;;;;;;;;;5062061;28;20403;-78
2023/11/15 09:50:30;;;;;;;2.90;0.82;;;;;;;;;;5061300;28;20055;-76
2023/11/15 09:52:56;;;;;;;3.38;0.80;;;;;;;;;;5064366;28;20013;-77
2023/11/15 09:55:26;;;;;;;4.32;0.85;;;;;;;;;;5044654;28;20128;-76
2023/11/15 09:57:53;;;;;;;1.58;0.63;;;;;;;;;;5060067;28;20031;-77
2023/11/15 10:00:20;;;;;;;2.22;0.65;;;;;;;;;;5047375;28;20036;-78
2023/11/15 10:02:47;;;;;;;4.78;0.75;;;;;;;;;;5044767;28;21131;-77
2023/11/15 10:05:19;;;;;;;1.67;0.40;;;;;;;;;;5061050;28;20059;-77
2023/11/15 10:07:55;;;;;;;2.17;0.75;;;;;;;;;;5062659;28;20057;-77
2023/11/15 10:10:22;;;;;;;4.05;1.42;;;;;;;;;;5064912;28;20025;-78
2023/11/15 10:12:49;;;;;;;2.17;0.50;;;;;;;;;;5063166;28;20309;-75
2023/11/15 10:15:18;;;;;;;2.92;0.63;;;;;;;;;;5072463;28;20019;-76
2023/11/15 10:17:45;;;;;;;0.77;0.60;;;;;;;;;;5068638;28;20497;-77
2023/11/15 10:20:18;;;;;;;1.77;0.40;;;;;;;;;;5064240;28;20021;-76
2023/11/15 10:22:46;;;;;;;1.45;0.50;;;;;;;;;;5066944;28;20021;-76
2023/11/15 10:25:13;;;;;;;3.58;0.80;;;;;;;;;;5056407;28;20378;-75
2023/11/15 10:27:43;;;;;;;1.45;0.63;;;;;;;;;;5048537;28;20024;-77
2023/11/15 10:30:12;;;;;;;1.73;0.60;;;;;;;;;;5073185;28;20083;-76
2023/11/15 10:32:40;;;;;;;0.77;0.50;;;;;;;;;;5039209;28;20107;-76
2023/11/15 10:35:08;;;;;;;1.45;0.70;;;;;;;;;;5071466;28;20490;-75
2023/11/15 10:37:34;;;;;;;1.58;0.73;;;;;;;;;;5050003;28;20032;-75
2023/11/15 10:40:06;;;;;;;2.60;1.27;;;;;;;;;;5057534;28;20020;-75
2023/11/15 10:42:34;;;;;;;1.52;0.80;;;;;;;;;;5068535;28;20021;-75
2023/11/15 10:45:08;;;;;;;2.67;0.70;;;;;;;;;;5076996;28;20067;-75
2023/11/15 10:47:37;;;;;;;2.58;0.65;;;;;;;;;;5076658;28;20027;-76
2023/11/15 10:50:08;;;;;;;2.20;0.45;;;;;;;;;;5060448;28;20023;-77
2023/11/15 10:52:34;;;;;;;1.33;0.68;;;;;;;;;;5059281;28;20032;-76
2023/11/15 10:55:01;;;;;;;1.73;0.73;;;;;;;;;;5084396;28;20391;-75
2023/11/15 10:57:27;;;;;;;1.00;0.60;;;;;;;;;;5061258;28;20036;-74
2023/11/15 10:59:54;;;;;;;1.20;0.60;;;;;;;;;;5052675;28;20103;-75
2023/11/15 11:02:24;;;;;;;1.10;0.60;;;;;;;;;;5056807;28;20040;-76
2023/11/15 11:04:51;;;;;;;3.17;0.65;;;;;;;;;;5075871;28;20017;-76
2023/11/15 11:07:23;;;;;;;1.77;0.65;;;;;;;;;;5060930;28;20098;-76
2023/11/15 11:10:08;;;;;;;1.52;0.63;;;;;;;;;;5059107;28;20048;-75
2023/11/15 11:12:36;;;;;;;2.97;0.90;;;;;;;;;;5056124;28;20035;-76
2023/11/15 11:15:31;;;;;;;2.20;0.90;;;;;;;;;;5061013;28;20016;-75
2023/11/15 11:18:05;;;;;;;1.00;0.35;;;;;;;;;;5065212;28;20406;-76
2023/11/15 11:20:35;;;;;;;1.58;0.70;;;;;;;;;;5060985;28;20033;-76
2023/11/15 11:23:16;;;;;;;1.95;0.65;;;;;;;;;;5068068;28;20108;-75
2023/11/15 11:25:42;;;;;;;1.80;0.73;;;;;;;;;;5054161;28;20037;-75
2023/11/15 11:28:12;;;;;;;2.05;0.70;;;;;;;;;;5063640;28;20103;-75
2023/11/15 11:30:38;;;;;;;1.85;0.70;;;;;;;;;;5045095;28;20108;-74
2023/11/15 11:33:13;;;;;;;0.95;0.60;;;;;;;;;;5066515;28;20103;-76
2023/11/15 11:35:40;;;;;;;2.35;0.70;;;;;;;;;;5067357;28;20029;-76
2023/11/15 11:38:11;;;;;;;2.00;0.70;;;;;;;;;;5075891;28;20493;-77
2023/11/15 11:40:42;;;;;;;1.15;0.70;;;;;;;;;;5068264;28;20037;-76
2023/11/15 11:43:15;;;;;;;2.20;0.70;;;;;;;;;;5078204;28;20055;-75
2023/11/15 11:45:42;;;;;;;1.80;0.77;;;;;;;;;;5074477;28;20025;-77
2023/11/15 11:48:16;;;;;;;3.90;1.23;;;;;;;;;;5075442;28;20021;-76
2023/11/15 11:50:51;;;;;;;2.78;1.00;;;;;;;;;;5066778;28;20048;-75
2023/11/15 11:53:18;;;;;;;2.38;0.75;;;;;;;;;;5069407;28;20425;-75
2023/11/15 11:55:45;;;;;;;4.10;1.10;;;;;;;;;;5064262;28;20100;-76
2023/11/15 11:58:11;;;;;;;1.23;0.75;;;;;;;;;;5063056;28;20021;-77
2023/11/15 12:00:37;;;;;;;1.58;0.77;;;;;;;;;;5062812;28;20032;-76
2023/11/15 12:03:03;;;;;;;2.55;1.08;;;;;;;;;;5067722;28;20071;-77
2023/11/15 12:05:30;;;;;;;4.18;0.90;;;;;;;;;;5058161;28;20025;-76
2023/11/15 12:07:56;;;;;;;2.38;0.77;;;;;;;;;;5065678;28;20430;-76
2023/11/15 12:10:24;;;;;;;1.45;0.85;;;;;;;;;;5067163;28;20021;-76
2023/11/15 12:13:04;;;;;;;5.65;1.33;;;;;;;;;;5065647;28;20036;-75
2023/11/15 12:15:30;;;;;;;2.80;0.70;;;;;;;;;;5080792;28;20070;-76
2023/11/15 12:17:57;;;;;;;1.60;0.80;;;;;;;;;;5053882;28;20044;-75
2023/11/15 12:20:28;;;;;;;2.65;0.98;;;;;;;;;;5070063;28;20025;-76
2023/11/15 12:23:08;;;;;;;3.70;1.00;;;;;;;;;;5077074;28;20021;-75
2023/11/15 12:25:43;;;;;;;2.88;1.27;;;;;;;;;;5067923;28;20024;-75
2023/11/15 12:28:09;;;;;;;2.83;1.27;;;;;;;;;;5059013;28;20021;-74
2023/11/15 12:30:35;;;;;;;6.22;0.98;;;;;;;;;;5064758;28;20025;-75
2023/11/15 12:33:02;;;;;;;3.55;0.80;;;;;;;;;;5070125;28;20032;-75
2023/11/15 12:35:32;;;;;;;3.53;1.20;;;;;;;;;;5056830;28;20514;-75
2023/11/15 12:38:12;;;;;;;3.20;0.98;;;;;;;;;;5047885;28;20025;-75
2023/11/15 12:40:39;;;;;;;5.82;1.40;;;;;;;;;;5045170;28;20049;-75
2023/11/15 12:43:30;;;;;;;2.60;0.95;;;;;;;;;;5055358;28;20049;-74
2023/11/15 12:45:56;;;;;;;2.13;0.95;;;;;;;;;;5049758;28;20440;-74
2023/11/15 12:48:22;;;;;;;0.88;0.65;;;;;;;;;;5075403;28;20532;-76
2023/11/15 12:50:49;;;;;;;2.78;1.05;;;;;;;;;;5059733;28;20025;-74
2023/11/15 12:53:21;;;;;;;2.45;0.73;;;;;;;;;;5058803;28;20021;-74
2023/11/15 12:55:49;;;;;;;5.45;1.20;;;;;;;;;;5063901;28;20484;-74
2023/11/15 12:58:15;;;;;;;2.55;0.80;;;;;;;;;;5038112;28;20403;-75
2023/11/15 13:01:15;;;;;;;2.20;1.15;;;;;;;;;;5058316;28;20025;-75
2023/11/15 13:03:42;;;;;;;3.08;1.10;;;;;;;;;;5009972;28;20045;-75
2023/11/15 13:06:11;;;;;;;2.47;0.50;;;;;;;;;;5070371;28;20107;-75
2023/11/15 13:08:38;;;;;;;0.80;0.60;;;;;;;;;;5073573;28;20086;-76
2023/11/15 13:11:08;;;;;;;2.13;0.93;;;;;;;;;;5061950;28;20036;-75
2023/11/15 13:13:36;;;;;;;6.63;1.10;;;;;;;;;;5053299;28;20021;-75
2023/11/15 13:16:03;;;;;;;1.50;0.90;;;;;;;;;;5058973;28;20013;-76
2023/11/15 13:18:29;;;;;;;1.20;0.68;;;;;;;;;;5070211;28;20025;-75
2023/11/15 13:20:58;;;;;;;0.57;0.57;;;;;;;;;;5079154;28;20024;-75
2023/11/15 13:23:25;;;;;;;3.97;0.70;;;;;;;;;;5075326;28;20029;-75
2023/11/15 13:25:53;;;;;;;2.53;0.77;;;;;;;;;;5083804;28;20028;-74
2023/11/15 13:28:21;;;;;;;1.00;0.70;;;;;;;;;;5081448;28;20043;-75
2023/11/15 13:30:47;;;;;;;2.42;0.70;;;;;;;;;;5081235;28;20490;-77
2023/11/15 13:33:17;;;;;;;1.70;0.70;;;;;;;;;;5063165;28;20029;-76
2023/11/15 13:35:43;;;;;;;4.50;0.93;;;;;;;;;;5051915;28;20414;-76
2023/11/15 13:38:12;;;;;;;3.92;0.80;;;;;;;;;;5044349;28;20024;-75
2023/11/15 13:40:39;;;;;;;2.92;0.60;;;;;;;;;;5062487;28;20017;-76
2023/11/15 13:43:06;;;;;;;0.93;0.43;;;;;;;;;;5068127;28;20538;-76
2023/11/15 13:45:32;;;;;;;4.55;0.85;;;;;;;;;;5050307;28;20087;-76
2023/11/15 13:47:58;;;;;;;4.68;1.00;;;;;;;;;;5064071;28;20021;-76
2023/11/15 13:50:24;;;;;;;2.15;0.95;;;;;;;;;;5085984;28;20414;-75
2023/11/15 13:52:51;;;;;;;1.90;0.85;;;;;;;;;;5053596;28;20032;-75
2023/11/15 13:55:17;;;;;;;2.67;1.00;;;;;;;;;;5051137;28;20090;-76
2023/11/15 13:57:43;;;;;;;1.58;0.63;;;;;;;;;;5052291;28;20503;-77
2023/11/15 14:00:23;;;;;;;3.35;0.93;;;;;;;;;;5045086;28;20032;-75
2023/11/15 14:02:50;;;;;;;2.20;1.00;;;;;;;;;;5068775;28;20017;-77
2023/11/15 14:05:17;;;;;;;3.47;1.13;;;;;;;;;;5029324;28;20036;-76
2023/11/15 14:07:44;;;;;;;4.47;0.82;;;;;;;;;;5066090;28;20025;-76
2023/11/15 14:10:19;;;;;;;5.25;0.98;;;;;;;;;;5065330;28;20020;-76
2023/11/15 14:12:45;;;;;;;3.67;0.80;;;;;;;;;;5051662;28;20407;-76
2023/11/15 14:15:12;;;;;;;1.27;0.50;;;;;;;;;;5072566;28;20390;-76
2023/11/15 14:17:39;;;;;;;2.55;0.57;;;;;;;;;;5056473;28;20067;-75
2023/11/15 14:20:07;;;;;;;3.05;0.77;;;;;;;;;;5056926;28;20126;-76
2023/11/15 14:22:33;;;;;;;2.33;0.98;;;;;;;;;;5056599;28;20033;-76
2023/11/15 14:25:02;;;;;;;0.68;0.52;;;;;;;;;;5047998;28;20025;-77
2023/11/15 14:27:29;;;;;;;2.97;0.55;;;;;;;;;;5052893;28;20032;-75
2023/11/15 14:29:56;;;;;;;3.47;0.70;;;;;;;;;;5058810;28;20013;-76
2023/11/15 14:32:22;;;;;;;3.85;0.68;;;;;;;;;;5076497;28;20024;-77
2023/11/15 14:34:48;;;;;;;2.83;0.63;;;;;;;;;;5039246;28;20025;-76
2023/11/15 14:37:14;;;;;;;3.50;0.73;;;;;;;;;;5054217;28;20436;-77
2023/11/15 14:39:41;;;;;;;0.95;0.50;;;;;;;;;;5065191;28;20032;-77
2023/11/15 14:42:07;;;;;;;1.20;0.40;;;;;;;;;;5067166;28;20063;-77
2023/11/15 14:44:34;;;;;;;3.03;0.60;;;;;;;;;;5075891;28;20029;-77